Puerto Banus, Marbella

>

This is an optional block (switch it off / on) in the settings - file ($SITE['banners'] = false;)

You can display ads, any other important text or photo’s using text / html or PHP code.

You can place one or more at the top and or bottom and it can all be different for content / size .



Thunder radar more information blitzortung!


Rain radar  rain snow radar


Visit our other weather sites:

Documentation for the template used

MeteoibericaRed estaciones Meteorologicas

MeteoclimaticRed estaciones Meteorologicas



No particular awareness of the weather is required.    There are no Weather-warnings

Nearby METAR Reports

   
EBAW - Antwerp
Updated: 22-07-2018 22:20
Clear  
Clear  
   Wind: North 9.3 km/h
Wind: North 9.3 km/h
Temperature: 23°C
Dew Point: 14°C
Humidity: 57%
Barometer: 1016 hPa
Visibility: More than 10 km
Cloud details: Clear
EBAW 222020Z 35005KT CAVOK 23/14 Q1016 NOSIG
EBLG - Liège
Updated: 22-07-2018 22:20
Clear  
Clear  
   Wind: NNW 7.4 km/h
Wind: NNW 7.4 km/h
Temperature: 22°C
Dew Point: 13°C
Humidity: 57%
Barometer: 1017 hPa
Visibility: More than 10 km
Cloud details: Clear
EBLG 222020Z 34004KT CAVOK 22/13 Q1017 NOSIG
EBCV - Mons/Bergen
Updated: 21-07-2018 08:25
NOT Current
  
  
   Wind: North 7.4 km/h
Wind: North 7.4 km/h
Temperature: 18°C
Dew Point: 15°C
Humidity: 83%
Barometer: 1012 hPa
EBCV 210625Z AUTO 35004KT //// /// 18/15 Q1012
EHBK - Maastricht
Updated: 22-07-2018 22:25
Clear  
Clear  
   Wind: NNW 9.3 km/h
Wind: NNW 9.3 km/h
Temperature: 22°C
Dew Point: 12°C
Humidity: 53%
Barometer: 1016 hPa
Clouds: Clear
Visibility: More than 10 km
Cloud details: Clear
EHBK 222025Z AUTO 33005KT 270V360 9999 NCD 22/12 Q1016 NOSIG
ELLX - Luxemburg
Updated: 22-07-2018 22:20
Clear  
Clear  
   Wind: North 16.7 km/h
Wind: North 16.7 km/h
Temperature: 22°C
Dew Point: 9°C
Humidity: 44%
Barometer: 1017 hPa
Visibility: More than 10 km
Cloud details: Clear
ELLX 222020Z 36009KT CAVOK 22/09 Q1017 NOSIG
EBOS - Oostende
Updated: 22-07-2018 22:20
Clear  
Clear  
   Wind: West 20.4 km/h
Wind: West 20.4 km/h
Temperature: 22°C
Dew Point: 15°C
Humidity: 65%
Barometer: 1016 hPa
Visibility: More than 10 km
Cloud details: Clear
EBOS 222020Z 26011KT CAVOK 22/15 Q1016 NOSIG

Script developed by  Saratoga-weather.org Adapted for the template by  Weerstation Leuven

You find our weather info also at:

Weather Underground

Iberian Peninsula Weather Network